University Heights, New York
Current Conditions -  °F | °C
As of 3:51 PM on Thursday 18 Dec 2014 (Local Time) from KNYC Reporting Station
Broken Clouds Broken Clouds  
Wind Chill: 36°   Ceiling: 3800
Heat Index: 41°   Visibility: 10mi
Dew Point: 23°   Wind: 7mph
Humidity: 49%   Direction: NA
Pressure: 29.98"   Gusts: 25mph
Location:  40.8376°N, 73.9236°W
Report Text: KNYC 182051Z AUTO VRB06G22KT 10SM BKN038 05/M05 A2998 RMK AO2 SLP142 T00501050 53003 $
Loading
Personal Weather Stations






























Interactive Weather Map New forecast layout! Learn more

10-Day Weather Forecast

Advertisements
Track Severe Weather on mobile